sensor_id;sensor_type;location;lat;lon;timestamp;P1;durP1;ratioP1;P2;durP2;ratioP2
64063;SDS011;50314;50.618;10.642;2023-03-19T00:01:56;3.53;;;2.42;;
64063;SDS011;50314;50.618;10.642;2023-03-19T00:04:22;4.05;;;2.65;;
64063;SDS011;50314;50.618;10.642;2023-03-19T00:06:49;3.60;;;2.42;;
64063;SDS011;50314;50.618;10.642;2023-03-19T00:09:15;3.53;;;2.72;;
64063;SDS011;50314;50.618;10.642;2023-03-19T00:11:40;4.10;;;2.80;;
64063;SDS011;50314;50.618;10.642;2023-03-19T00:14:07;3.92;;;2.60;;
64063;SDS011;50314;50.618;10.642;2023-03-19T00:16:33;3.88;;;2.50;;
64063;SDS011;50314;50.618;10.642;2023-03-19T00:18:58;3.88;;;2.50;;
64063;SDS011;50314;50.618;10.642;2023-03-19T00:21:24;4.15;;;2.83;;
64063;SDS011;50314;50.618;10.642;2023-03-19T00:23:50;4.25;;;2.80;;
64063;SDS011;50314;50.618;10.642;2023-03-19T00:26:16;4.35;;;2.78;;
64063;SDS011;50314;50.618;10.642;2023-03-19T00:28:41;4.30;;;3.00;;
64063;SDS011;50314;50.618;10.642;2023-03-19T00:31:08;4.10;;;2.47;;
64063;SDS011;50314;50.618;10.642;2023-03-19T00:33:35;4.40;;;2.70;;
64063;SDS011;50314;50.618;10.642;2023-03-19T00:36:01;3.97;;;2.60;;
64063;SDS011;50314;50.618;10.642;2023-03-19T00:38:26;3.30;;;2.45;;
64063;SDS011;50314;50.618;10.642;2023-03-19T00:40:52;3.38;;;2.33;;
64063;SDS011;50314;50.618;10.642;2023-03-19T00:43:17;3.70;;;2.53;;
64063;SDS011;50314;50.618;10.642;2023-03-19T00:45:43;4.35;;;2.50;;
64063;SDS011;50314;50.618;10.642;2023-03-19T00:48:08;3.42;;;2.70;;
64063;SDS011;50314;50.618;10.642;2023-03-19T00:50:33;4.50;;;2.80;;
64063;SDS011;50314;50.618;10.642;2023-03-19T00:52:59;3.33;;;2.50;;
64063;SDS011;50314;50.618;10.642;2023-03-19T00:55:25;3.83;;;2.70;;
64063;SDS011;50314;50.618;10.642;2023-03-19T00:57:51;4.63;;;2.60;;
64063;SDS011;50314;50.618;10.642;2023-03-19T01:00:17;3.05;;;2.28;;
64063;SDS011;50314;50.618;10.642;2023-03-19T01:02:43;2.90;;;2.33;;
64063;SDS011;50314;50.618;10.642;2023-03-19T01:05:09;3.22;;;2.38;;
64063;SDS011;50314;50.618;10.642;2023-03-19T01:07:34;3.53;;;2.50;;
64063;SDS011;50314;50.618;10.642;2023-03-19T01:10:00;3.38;;;2.47;;
64063;SDS011;50314;50.618;10.642;2023-03-19T01:12:25;3.17;;;2.17;;
64063;SDS011;50314;50.618;10.642;2023-03-19T01:14:51;3.25;;;2.40;;
64063;SDS011;50314;50.618;10.642;2023-03-19T01:17:16;3.50;;;2.58;;
64063;SDS011;50314;50.618;10.642;2023-03-19T01:19:42;3.35;;;2.33;;
64063;SDS011;50314;50.618;10.642;2023-03-19T01:22:07;3.70;;;2.40;;
64063;SDS011;50314;50.618;10.642;2023-03-19T01:24:33;3.88;;;2.72;;
64063;SDS011;50314;50.618;10.642;2023-03-19T01:26:58;3.67;;;2.40;;
64063;SDS011;50314;50.618;10.642;2023-03-19T01:29:24;3.50;;;2.33;;
64063;SDS011;50314;50.618;10.642;2023-03-19T01:31:50;3.42;;;2.30;;
64063;SDS011;50314;50.618;10.642;2023-03-19T01:34:15;3.60;;;2.33;;
64063;SDS011;50314;50.618;10.642;2023-03-19T01:36:41;3.42;;;2.67;;
64063;SDS011;50314;50.618;10.642;2023-03-19T01:39:06;3.05;;;2.00;;
64063;SDS011;50314;50.618;10.642;2023-03-19T01:41:32;3.60;;;2.13;;
64063;SDS011;50314;50.618;10.642;2023-03-19T01:43:57;3.25;;;2.38;;
64063;SDS011;50314;50.618;10.642;2023-03-19T01:46:30;3.20;;;2.03;;
64063;SDS011;50314;50.618;10.642;2023-03-19T01:49:02;3.13;;;2.22;;
64063;SDS011;50314;50.618;10.642;2023-03-19T01:51:34;4.00;;;2.60;;
64063;SDS011;50314;50.618;10.642;2023-03-19T01:54:08;2.85;;;1.92;;
64063;SDS011;50314;50.618;10.642;2023-03-19T01:56:37;3.63;;;2.45;;
64063;SDS011;50314;50.618;10.642;2023-03-19T02:04:38;3.45;;;2.05;;
64063;SDS011;50314;50.618;10.642;2023-03-19T02:07:06;4.38;;;2.35;;
64063;SDS011;50314;50.618;10.642;2023-03-19T02:09:33;2.92;;;2.33;;
64063;SDS011;50314;50.618;10.642;2023-03-19T02:11:59;3.20;;;2.13;;
64063;SDS011;50314;50.618;10.642;2023-03-19T02:14:26;2.72;;;2.25;;
64063;SDS011;50314;50.618;10.642;2023-03-19T02:16:51;2.42;;;1.90;;
64063;SDS011;50314;50.618;10.642;2023-03-19T02:19:30;2.85;;;2.00;;
64063;SDS011;50314;50.618;10.642;2023-03-19T02:22:02;2.78;;;1.88;;
64063;SDS011;50314;50.618;10.642;2023-03-19T02:24:32;3.28;;;2.30;;
64063;SDS011;50314;50.618;10.642;2023-03-19T02:27:04;2.50;;;2.10;;
64063;SDS011;50314;50.618;10.642;2023-03-19T02:29:33;2.95;;;2.00;;
64063;SDS011;50314;50.618;10.642;2023-03-19T02:31:58;2.92;;;2.00;;
64063;SDS011;50314;50.618;10.642;2023-03-19T02:42:37;2.75;;;2.35;;
64063;SDS011;50314;50.618;10.642;2023-03-19T02:45:03;2.40;;;2.17;;
64063;SDS011;50314;50.618;10.642;2023-03-19T02:47:29;3.47;;;2.78;;
64063;SDS011;50314;50.618;10.642;2023-03-19T02:49:54;2.72;;;1.80;;
64063;SDS011;50314;50.618;10.642;2023-03-19T02:52:20;2.67;;;2.35;;
64063;SDS011;50314;50.618;10.642;2023-03-19T02:54:47;2.17;;;1.65;;
64063;SDS011;50314;50.618;10.642;2023-03-19T02:57:12;2.60;;;2.03;;
64063;SDS011;50314;50.618;10.642;2023-03-19T02:59:38;3.03;;;2.03;;
64063;SDS011;50314;50.618;10.642;2023-03-19T03:02:04;2.63;;;2.00;;
64063;SDS011;50314;50.618;10.642;2023-03-19T03:04:30;2.95;;;1.90;;
64063;SDS011;50314;50.618;10.642;2023-03-19T03:06:56;3.10;;;1.83;;
64063;SDS011;50314;50.618;10.642;2023-03-19T03:09:22;2.63;;;2.00;;
64063;SDS011;50314;50.618;10.642;2023-03-19T03:11:47;2.50;;;1.80;;
64063;SDS011;50314;50.618;10.642;2023-03-19T03:14:13;3.00;;;2.03;;
64063;SDS011;50314;50.618;10.642;2023-03-19T03:16:38;2.35;;;1.92;;
64063;SDS011;50314;50.618;10.642;2023-03-19T03:19:04;3.03;;;2.03;;
64063;SDS011;50314;50.618;10.642;2023-03-19T03:21:30;2.15;;;1.70;;
64063;SDS011;50314;50.618;10.642;2023-03-19T03:23:55;2.50;;;1.98;;
64063;SDS011;50314;50.618;10.642;2023-03-19T03:26:21;2.92;;;2.03;;
64063;SDS011;50314;50.618;10.642;2023-03-19T03:28:46;2.30;;;1.70;;
64063;SDS011;50314;50.618;10.642;2023-03-19T03:31:12;2.35;;;1.88;;
64063;SDS011;50314;50.618;10.642;2023-03-19T03:33:38;2.08;;;1.80;;
64063;SDS011;50314;50.618;10.642;2023-03-19T03:36:04;2.53;;;1.77;;
64063;SDS011;50314;50.618;10.642;2023-03-19T03:38:30;2.63;;;1.80;;
64063;SDS011;50314;50.618;10.642;2023-03-19T03:40:56;2.85;;;1.80;;
64063;SDS011;50314;50.618;10.642;2023-03-19T03:43:22;2.78;;;1.83;;
64063;SDS011;50314;50.618;10.642;2023-03-19T03:45:48;2.17;;;1.50;;
64063;SDS011;50314;50.618;10.642;2023-03-19T03:48:14;2.55;;;1.90;;
64063;SDS011;50314;50.618;10.642;2023-03-19T03:50:40;2.08;;;1.88;;
64063;SDS011;50314;50.618;10.642;2023-03-19T03:53:06;1.70;;;1.55;;
64063;SDS011;50314;50.618;10.642;2023-03-19T03:55:32;2.65;;;2.05;;
64063;SDS011;50314;50.618;10.642;2023-03-19T03:57:58;2.40;;;1.77;;
64063;SDS011;50314;50.618;10.642;2023-03-19T04:00:24;2.38;;;1.65;;
64063;SDS011;50314;50.618;10.642;2023-03-19T04:02:50;2.35;;;1.83;;
64063;SDS011;50314;50.618;10.642;2023-03-19T04:05:16;1.52;;;1.40;;
64063;SDS011;50314;50.618;10.642;2023-03-19T04:07:42;1.90;;;1.58;;
64063;SDS011;50314;50.618;10.642;2023-03-19T04:10:08;2.05;;;1.65;;
64063;SDS011;50314;50.618;10.642;2023-03-19T04:12:36;2.35;;;1.55;;
64063;SDS011;50314;50.618;10.642;2023-03-19T04:15:02;2.08;;;1.52;;
64063;SDS011;50314;50.618;10.642;2023-03-19T04:17:28;2.85;;;1.85;;
64063;SDS011;50314;50.618;10.642;2023-03-19T04:19:54;2.35;;;1.60;;
64063;SDS011;50314;50.618;10.642;2023-03-19T04:22:20;2.03;;;1.60;;
64063;SDS011;50314;50.618;10.642;2023-03-19T04:24:46;2.13;;;1.77;;
64063;SDS011;50314;50.618;10.642;2023-03-19T04:27:11;2.20;;;1.90;;
64063;SDS011;50314;50.618;10.642;2023-03-19T04:29:36;2.63;;;1.98;;
64063;SDS011;50314;50.618;10.642;2023-03-19T04:32:02;2.20;;;1.60;;
64063;SDS011;50314;50.618;10.642;2023-03-19T04:34:28;2.47;;;1.50;;
64063;SDS011;50314;50.618;10.642;2023-03-19T04:36:53;2.05;;;1.50;;
64063;SDS011;50314;50.618;10.642;2023-03-19T04:39:20;2.20;;;1.52;;
64063;SDS011;50314;50.618;10.642;2023-03-19T04:41:46;2.40;;;2.17;;
64063;SDS011;50314;50.618;10.642;2023-03-19T04:44:11;2.65;;;1.58;;
64063;SDS011;50314;50.618;10.642;2023-03-19T04:46:37;2.15;;;1.70;;
64063;SDS011;50314;50.618;10.642;2023-03-19T04:49:03;2.97;;;1.60;;
64063;SDS011;50314;50.618;10.642;2023-03-19T04:51:28;2.15;;;1.70;;
64063;SDS011;50314;50.618;10.642;2023-03-19T04:53:53;2.72;;;1.67;;
64063;SDS011;50314;50.618;10.642;2023-03-19T04:56:19;1.95;;;1.40;;
64063;SDS011;50314;50.618;10.642;2023-03-19T04:58:45;2.10;;;1.58;;
64063;SDS011;50314;50.618;10.642;2023-03-19T05:01:11;2.03;;;1.50;;
64063;SDS011;50314;50.618;10.642;2023-03-19T05:03:36;2.35;;;1.70;;
64063;SDS011;50314;50.618;10.642;2023-03-19T05:06:02;2.08;;;1.60;;
64063;SDS011;50314;50.618;10.642;2023-03-19T05:08:27;1.73;;;1.50;;
64063;SDS011;50314;50.618;10.642;2023-03-19T05:10:53;2.92;;;1.92;;
64063;SDS011;50314;50.618;10.642;2023-03-19T05:13:18;2.67;;;1.80;;
64063;SDS011;50314;50.618;10.642;2023-03-19T05:15:44;2.50;;;1.67;;
64063;SDS011;50314;50.618;10.642;2023-03-19T05:18:10;2.08;;;1.52;;
64063;SDS011;50314;50.618;10.642;2023-03-19T05:20:36;2.08;;;1.70;;
64063;SDS011;50314;50.618;10.642;2023-03-19T05:23:03;2.17;;;1.45;;
64063;SDS011;50314;50.618;10.642;2023-03-19T05:25:29;2.03;;;1.63;;
64063;SDS011;50314;50.618;10.642;2023-03-19T05:27:55;2.38;;;1.58;;
64063;SDS011;50314;50.618;10.642;2023-03-19T05:30:21;2.05;;;1.65;;
64063;SDS011;50314;50.618;10.642;2023-03-19T05:32:47;1.73;;;1.60;;
64063;SDS011;50314;50.618;10.642;2023-03-19T05:35:14;2.10;;;1.30;;
64063;SDS011;50314;50.618;10.642;2023-03-19T05:37:39;2.50;;;1.65;;
64063;SDS011;50314;50.618;10.642;2023-03-19T05:40:05;2.58;;;1.67;;
64063;SDS011;50314;50.618;10.642;2023-03-19T05:42:31;3.40;;;1.40;;
64063;SDS011;50314;50.618;10.642;2023-03-19T05:44:57;1.80;;;1.30;;
64063;SDS011;50314;50.618;10.642;2023-03-19T05:47:22;2.22;;;1.58;;
64063;SDS011;50314;50.618;10.642;2023-03-19T05:49:48;2.15;;;1.50;;
64063;SDS011;50314;50.618;10.642;2023-03-19T05:52:13;2.22;;;1.50;;
64063;SDS011;50314;50.618;10.642;2023-03-19T05:54:39;4.53;;;1.70;;
64063;SDS011;50314;50.618;10.642;2023-03-19T05:57:05;2.50;;;1.85;;
64063;SDS011;50314;50.618;10.642;2023-03-19T05:59:31;2.75;;;1.60;;
64063;SDS011;50314;50.618;10.642;2023-03-19T06:01:58;2.40;;;1.42;;
64063;SDS011;50314;50.618;10.642;2023-03-19T06:04:23;2.35;;;1.52;;
64063;SDS011;50314;50.618;10.642;2023-03-19T06:09:16;2.42;;;1.70;;
64063;SDS011;50314;50.618;10.642;2023-03-19T06:11:41;2.13;;;1.70;;
64063;SDS011;50314;50.618;10.642;2023-03-19T06:14:07;5.20;;;1.88;;
64063;SDS011;50314;50.618;10.642;2023-03-19T06:16:33;4.82;;;1.92;;
64063;SDS011;50314;50.618;10.642;2023-03-19T06:18:58;2.53;;;1.90;;
64063;SDS011;50314;50.618;10.642;2023-03-19T06:21:24;2.85;;;1.60;;
64063;SDS011;50314;50.618;10.642;2023-03-19T06:23:54;2.60;;;1.80;;
64063;SDS011;50314;50.618;10.642;2023-03-19T06:26:20;3.72;;;2.05;;
64063;SDS011;50314;50.618;10.642;2023-03-19T06:28:46;3.97;;;1.80;;
64063;SDS011;50314;50.618;10.642;2023-03-19T06:31:12;3.47;;;1.80;;
64063;SDS011;50314;50.618;10.642;2023-03-19T06:33:38;3.17;;;1.73;;
64063;SDS011;50314;50.618;10.642;2023-03-19T06:36:03;2.65;;;1.50;;
64063;SDS011;50314;50.618;10.642;2023-03-19T06:38:29;4.35;;;1.67;;
64063;SDS011;50314;50.618;10.642;2023-03-19T06:40:55;3.03;;;2.05;;
64063;SDS011;50314;50.618;10.642;2023-03-19T06:43:20;3.92;;;1.90;;
64063;SDS011;50314;50.618;10.642;2023-03-19T06:45:46;3.60;;;1.70;;
64063;SDS011;50314;50.618;10.642;2023-03-19T06:48:11;6.28;;;2.10;;
64063;SDS011;50314;50.618;10.642;2023-03-19T06:50:37;3.33;;;1.77;;
64063;SDS011;50314;50.618;10.642;2023-03-19T06:53:02;3.95;;;1.60;;
64063;SDS011;50314;50.618;10.642;2023-03-19T06:55:28;3.15;;;1.98;;
64063;SDS011;50314;50.618;10.642;2023-03-19T06:57:55;3.63;;;2.40;;
64063;SDS011;50314;50.618;10.642;2023-03-19T07:00:21;3.15;;;2.00;;
64063;SDS011;50314;50.618;10.642;2023-03-19T07:02:46;2.97;;;1.88;;
64063;SDS011;50314;50.618;10.642;2023-03-19T07:05:12;4.85;;;2.10;;
64063;SDS011;50314;50.618;10.642;2023-03-19T07:07:38;3.22;;;1.90;;
64063;SDS011;50314;50.618;10.642;2023-03-19T07:10:04;3.33;;;1.80;;
64063;SDS011;50314;50.618;10.642;2023-03-19T07:12:30;3.30;;;2.00;;
64063;SDS011;50314;50.618;10.642;2023-03-19T07:14:56;2.17;;;1.70;;
64063;SDS011;50314;50.618;10.642;2023-03-19T07:17:22;3.17;;;2.20;;
64063;SDS011;50314;50.618;10.642;2023-03-19T07:19:48;2.67;;;2.05;;
64063;SDS011;50314;50.618;10.642;2023-03-19T07:22:13;4.13;;;2.47;;
64063;SDS011;50314;50.618;10.642;2023-03-19T07:24:39;4.18;;;3.13;;
64063;SDS011;50314;50.618;10.642;2023-03-19T07:27:05;4.43;;;3.35;;
64063;SDS011;50314;50.618;10.642;2023-03-19T07:29:30;5.00;;;3.00;;
64063;SDS011;50314;50.618;10.642;2023-03-19T07:31:55;5.32;;;3.20;;
64063;SDS011;50314;50.618;10.642;2023-03-19T07:34:21;4.53;;;3.03;;
64063;SDS011;50314;50.618;10.642;2023-03-19T07:36:47;4.38;;;3.13;;
64063;SDS011;50314;50.618;10.642;2023-03-19T07:39:13;4.05;;;3.20;;
64063;SDS011;50314;50.618;10.642;2023-03-19T07:41:38;4.82;;;3.10;;
64063;SDS011;50314;50.618;10.642;2023-03-19T07:44:04;5.18;;;3.10;;
64063;SDS011;50314;50.618;10.642;2023-03-19T07:46:30;4.32;;;2.90;;
64063;SDS011;50314;50.618;10.642;2023-03-19T07:48:55;5.05;;;2.90;;
64063;SDS011;50314;50.618;10.642;2023-03-19T07:51:21;5.35;;;3.00;;
64063;SDS011;50314;50.618;10.642;2023-03-19T07:53:46;4.70;;;3.15;;
64063;SDS011;50314;50.618;10.642;2023-03-19T07:56:13;5.97;;;2.63;;
64063;SDS011;50314;50.618;10.642;2023-03-19T07:58:38;5.55;;;2.75;;
64063;SDS011;50314;50.618;10.642;2023-03-19T08:01:04;4.18;;;2.55;;
64063;SDS011;50314;50.618;10.642;2023-03-19T08:03:29;3.63;;;2.78;;
64063;SDS011;50314;50.618;10.642;2023-03-19T08:05:55;4.70;;;2.53;;
64063;SDS011;50314;50.618;10.642;2023-03-19T08:08:20;3.10;;;2.25;;
64063;SDS011;50314;50.618;10.642;2023-03-19T08:10:46;4.07;;;2.53;;
64063;SDS011;50314;50.618;10.642;2023-03-19T08:13:12;4.03;;;2.85;;
64063;SDS011;50314;50.618;10.642;2023-03-19T08:15:38;6.53;;;3.55;;
64063;SDS011;50314;50.618;10.642;2023-03-19T08:18:04;4.55;;;2.83;;
64063;SDS011;50314;50.618;10.642;2023-03-19T08:20:30;5.40;;;3.13;;
64063;SDS011;50314;50.618;10.642;2023-03-19T08:22:56;3.95;;;2.67;;
64063;SDS011;50314;50.618;10.642;2023-03-19T08:25:22;4.85;;;2.92;;
64063;SDS011;50314;50.618;10.642;2023-03-19T08:27:49;6.85;;;3.35;;
64063;SDS011;50314;50.618;10.642;2023-03-19T08:30:15;4.78;;;2.63;;
64063;SDS011;50314;50.618;10.642;2023-03-19T08:32:41;6.45;;;2.88;;
64063;SDS011;50314;50.618;10.642;2023-03-19T08:35:09;5.35;;;2.80;;
64063;SDS011;50314;50.618;10.642;2023-03-19T08:37:34;5.32;;;2.40;;
64063;SDS011;50314;50.618;10.642;2023-03-19T08:40:00;4.97;;;2.90;;
64063;SDS011;50314;50.618;10.642;2023-03-19T08:42:25;3.63;;;2.40;;
64063;SDS011;50314;50.618;10.642;2023-03-19T08:44:51;3.67;;;2.53;;
64063;SDS011;50314;50.618;10.642;2023-03-19T08:47:16;5.80;;;2.75;;
64063;SDS011;50314;50.618;10.642;2023-03-19T08:49:42;3.95;;;2.70;;
64063;SDS011;50314;50.618;10.642;2023-03-19T08:52:07;4.63;;;2.60;;
64063;SDS011;50314;50.618;10.642;2023-03-19T08:54:33;4.90;;;2.50;;
64063;SDS011;50314;50.618;10.642;2023-03-19T08:57:00;4.38;;;2.50;;
64063;SDS011;50314;50.618;10.642;2023-03-19T08:59:26;4.82;;;2.33;;
64063;SDS011;50314;50.618;10.642;2023-03-19T09:01:52;5.47;;;2.45;;
64063;SDS011;50314;50.618;10.642;2023-03-19T09:04:18;5.32;;;3.03;;
64063;SDS011;50314;50.618;10.642;2023-03-19T09:06:44;4.15;;;2.35;;
64063;SDS011;50314;50.618;10.642;2023-03-19T09:09:10;4.03;;;2.22;;
64063;SDS011;50314;50.618;10.642;2023-03-19T09:11:35;4.35;;;2.40;;
64063;SDS011;50314;50.618;10.642;2023-03-19T09:14:01;3.13;;;2.30;;
64063;SDS011;50314;50.618;10.642;2023-03-19T09:16:26;3.47;;;2.15;;
64063;SDS011;50314;50.618;10.642;2023-03-19T09:18:52;4.00;;;2.70;;
64063;SDS011;50314;50.618;10.642;2023-03-19T09:21:17;4.50;;;2.80;;
64063;SDS011;50314;50.618;10.642;2023-03-19T09:23:43;3.85;;;2.65;;
64063;SDS011;50314;50.618;10.642;2023-03-19T09:26:08;4.15;;;2.55;;
64063;SDS011;50314;50.618;10.642;2023-03-19T09:28:34;8.70;;;2.90;;
64063;SDS011;50314;50.618;10.642;2023-03-19T09:31:00;5.65;;;3.50;;
64063;SDS011;50314;50.618;10.642;2023-03-19T09:33:31;5.45;;;2.90;;
64063;SDS011;50314;50.618;10.642;2023-03-19T09:35:56;4.25;;;2.63;;
64063;SDS011;50314;50.618;10.642;2023-03-19T09:38:22;4.43;;;2.60;;
64063;SDS011;50314;50.618;10.642;2023-03-19T09:40:51;4.50;;;2.70;;
64063;SDS011;50314;50.618;10.642;2023-03-19T09:46:49;4.88;;;2.75;;
64063;SDS011;50314;50.618;10.642;2023-03-19T09:49:24;5.82;;;3.53;;
64063;SDS011;50314;50.618;10.642;2023-03-19T09:52:01;7.85;;;3.78;;
64063;SDS011;50314;50.618;10.642;2023-03-19T09:54:32;6.18;;;3.90;;
64063;SDS011;50314;50.618;10.642;2023-03-19T09:57:03;5.75;;;3.72;;
64063;SDS011;50314;50.618;10.642;2023-03-19T09:59:29;12.80;;;4.85;;
64063;SDS011;50314;50.618;10.642;2023-03-19T10:02:00;11.93;;;4.78;;
64063;SDS011;50314;50.618;10.642;2023-03-19T10:11:08;9.48;;;5.13;;
64063;SDS011;50314;50.618;10.642;2023-03-19T10:13:37;7.65;;;4.75;;
64063;SDS011;50314;50.618;10.642;2023-03-19T10:16:28;9.88;;;4.53;;
64063;SDS011;50314;50.618;10.642;2023-03-19T10:18:57;12.07;;;5.15;;
64063;SDS011;50314;50.618;10.642;2023-03-19T10:24:03;7.45;;;4.45;;
64063;SDS011;50314;50.618;10.642;2023-03-19T10:26:35;13.25;;;4.60;;
64063;SDS011;50314;50.618;10.642;2023-03-19T10:29:02;8.25;;;4.60;;
64063;SDS011;50314;50.618;10.642;2023-03-19T10:31:39;7.88;;;4.60;;
64063;SDS011;50314;50.618;10.642;2023-03-19T10:34:22;12.55;;;5.15;;
64063;SDS011;50314;50.618;10.642;2023-03-19T10:36:59;11.95;;;4.88;;
64063;SDS011;50314;50.618;10.642;2023-03-19T10:39:25;11.30;;;5.25;;
64063;SDS011;50314;50.618;10.642;2023-03-19T10:44:34;7.57;;;4.45;;
64063;SDS011;50314;50.618;10.642;2023-03-19T10:47:09;6.85;;;4.40;;
64063;SDS011;50314;50.618;10.642;2023-03-19T10:49:36;7.00;;;4.07;;
64063;SDS011;50314;50.618;10.642;2023-03-19T10:52:02;8.52;;;4.30;;
64063;SDS011;50314;50.618;10.642;2023-03-19T10:54:27;6.07;;;3.28;;
64063;SDS011;50314;50.618;10.642;2023-03-19T10:56:55;6.22;;;3.63;;
64063;SDS011;50314;50.618;10.642;2023-03-19T10:59:25;6.85;;;3.75;;
64063;SDS011;50314;50.618;10.642;2023-03-19T11:02:01;8.75;;;4.25;;
64063;SDS011;50314;50.618;10.642;2023-03-19T11:04:40;7.68;;;3.42;;
64063;SDS011;50314;50.618;10.642;2023-03-19T11:07:09;8.02;;;3.63;;
64063;SDS011;50314;50.618;10.642;2023-03-19T11:09:43;7.43;;;3.58;;
64063;SDS011;50314;50.618;10.642;2023-03-19T11:12:18;6.40;;;3.60;;
64063;SDS011;50314;50.618;10.642;2023-03-19T11:14:47;4.75;;;3.03;;
64063;SDS011;50314;50.618;10.642;2023-03-19T11:17:26;5.13;;;2.92;;
64063;SDS011;50314;50.618;10.642;2023-03-19T11:20:07;5.18;;;3.22;;
64063;SDS011;50314;50.618;10.642;2023-03-19T11:22:39;7.03;;;3.72;;
64063;SDS011;50314;50.618;10.642;2023-03-19T11:25:15;6.38;;;3.30;;
64063;SDS011;50314;50.618;10.642;2023-03-19T11:28:00;5.35;;;3.40;;
64063;SDS011;50314;50.618;10.642;2023-03-19T11:30:38;5.72;;;2.72;;
64063;SDS011;50314;50.618;10.642;2023-03-19T11:35:50;6.00;;;3.25;;
64063;SDS011;50314;50.618;10.642;2023-03-19T11:38:44;4.85;;;3.00;;
64063;SDS011;50314;50.618;10.642;2023-03-19T11:44:03;4.38;;;2.22;;
64063;SDS011;50314;50.618;10.642;2023-03-19T11:52:03;3.58;;;1.60;;
64063;SDS011;50314;50.618;10.642;2023-03-19T11:57:18;3.03;;;1.90;;
64063;SDS011;50314;50.618;10.642;2023-03-19T12:03:04;2.92;;;1.80;;
64063;SDS011;50314;50.618;10.642;2023-03-19T12:11:06;3.47;;;2.03;;
64063;SDS011;50314;50.618;10.642;2023-03-19T12:19:19;3.65;;;1.98;;
64063;SDS011;50314;50.618;10.642;2023-03-19T12:28:00;3.05;;;1.80;;
64063;SDS011;50314;50.618;10.642;2023-03-19T12:30:40;4.97;;;2.17;;
64063;SDS011;50314;50.618;10.642;2023-03-19T12:35:38;3.45;;;1.80;;
64063;SDS011;50314;50.618;10.642;2023-03-19T12:43:35;3.03;;;1.63;;
64063;SDS011;50314;50.618;10.642;2023-03-19T12:46:13;4.13;;;2.00;;
64063;SDS011;50314;50.618;10.642;2023-03-19T12:51:14;2.85;;;1.80;;
64063;SDS011;50314;50.618;10.642;2023-03-19T12:53:46;2.22;;;1.50;;
64063;SDS011;50314;50.618;10.642;2023-03-19T12:56:18;3.25;;;1.58;;
64063;SDS011;50314;50.618;10.642;2023-03-19T12:59:12;2.90;;;1.70;;
64063;SDS011;50314;50.618;10.642;2023-03-19T13:01:52;3.45;;;2.08;;
64063;SDS011;50314;50.618;10.642;2023-03-19T13:04:32;2.95;;;1.60;;
64063;SDS011;50314;50.618;10.642;2023-03-19T13:07:16;2.38;;;1.70;;
64063;SDS011;50314;50.618;10.642;2023-03-19T13:10:08;2.60;;;1.73;;
64063;SDS011;50314;50.618;10.642;2023-03-19T13:12:42;2.90;;;1.50;;
64063;SDS011;50314;50.618;10.642;2023-03-19T13:15:13;2.78;;;1.80;;
64063;SDS011;50314;50.618;10.642;2023-03-19T13:17:54;3.25;;;1.90;;
64063;SDS011;50314;50.618;10.642;2023-03-19T13:23:34;2.83;;;1.70;;
64063;SDS011;50314;50.618;10.642;2023-03-19T13:26:02;3.55;;;2.05;;
64063;SDS011;50314;50.618;10.642;2023-03-19T13:28:33;2.97;;;1.50;;
64063;SDS011;50314;50.618;10.642;2023-03-19T13:31:02;2.47;;;1.55;;
64063;SDS011;50314;50.618;10.642;2023-03-19T13:33:30;2.35;;;1.50;;
64063;SDS011;50314;50.618;10.642;2023-03-19T13:35:59;2.55;;;1.58;;
64063;SDS011;50314;50.618;10.642;2023-03-19T13:41:04;2.50;;;1.60;;
64063;SDS011;50314;50.618;10.642;2023-03-19T13:46:25;3.05;;;1.95;;
64063;SDS011;50314;50.618;10.642;2023-03-19T13:51:38;3.35;;;1.83;;
64063;SDS011;50314;50.618;10.642;2023-03-19T14:01:59;2.83;;;1.77;;
64063;SDS011;50314;50.618;10.642;2023-03-19T14:04:32;3.80;;;2.17;;
64063;SDS011;50314;50.618;10.642;2023-03-19T14:07:11;3.00;;;1.45;;
64063;SDS011;50314;50.618;10.642;2023-03-19T14:12:35;3.85;;;1.90;;
64063;SDS011;50314;50.618;10.642;2023-03-19T14:17:40;3.55;;;2.00;;
64063;SDS011;50314;50.618;10.642;2023-03-19T14:25:27;2.67;;;1.90;;
64063;SDS011;50314;50.618;10.642;2023-03-19T14:31:18;3.03;;;1.88;;
64063;SDS011;50314;50.618;10.642;2023-03-19T14:33:51;1.75;;;1.50;;
64063;SDS011;50314;50.618;10.642;2023-03-19T14:36:22;1.50;;;1.27;;
64063;SDS011;50314;50.618;10.642;2023-03-19T14:41:17;2.88;;;1.60;;
64063;SDS011;50314;50.618;10.642;2023-03-19T14:47:06;3.92;;;1.70;;
64063;SDS011;50314;50.618;10.642;2023-03-19T14:52:28;1.92;;;1.40;;
64063;SDS011;50314;50.618;10.642;2023-03-19T14:55:00;1.58;;;1.48;;
64063;SDS011;50314;50.618;10.642;2023-03-19T14:57:33;2.10;;;1.35;;
64063;SDS011;50314;50.618;10.642;2023-03-19T15:07:55;2.42;;;1.38;;
64063;SDS011;50314;50.618;10.642;2023-03-19T15:10:28;4.07;;;1.48;;
64063;SDS011;50314;50.618;10.642;2023-03-19T15:13:21;5.47;;;1.70;;
64063;SDS011;50314;50.618;10.642;2023-03-19T15:16:05;3.25;;;1.50;;
64063;SDS011;50314;50.618;10.642;2023-03-19T15:18:36;2.03;;;1.60;;
64063;SDS011;50314;50.618;10.642;2023-03-19T15:21:02;1.63;;;1.30;;
64063;SDS011;50314;50.618;10.642;2023-03-19T15:23:29;3.30;;;1.50;;
64063;SDS011;50314;50.618;10.642;2023-03-19T15:25:56;2.88;;;1.27;;
64063;SDS011;50314;50.618;10.642;2023-03-19T15:28:26;2.22;;;1.40;;
64063;SDS011;50314;50.618;10.642;2023-03-19T15:31:01;3.10;;;1.60;;
64063;SDS011;50314;50.618;10.642;2023-03-19T15:33:32;2.53;;;1.52;;
64063;SDS011;50314;50.618;10.642;2023-03-19T15:38:45;1.98;;;1.55;;
64063;SDS011;50314;50.618;10.642;2023-03-19T15:41:19;2.00;;;1.50;;
64063;SDS011;50314;50.618;10.642;2023-03-19T15:43:48;2.38;;;1.30;;
64063;SDS011;50314;50.618;10.642;2023-03-19T15:46:16;1.65;;;1.10;;
64063;SDS011;50314;50.618;10.642;2023-03-19T15:51:19;3.47;;;1.48;;
64063;SDS011;50314;50.618;10.642;2023-03-19T15:53:48;3.60;;;1.70;;
64063;SDS011;50314;50.618;10.642;2023-03-19T15:56:15;1.70;;;1.30;;
64063;SDS011;50314;50.618;10.642;2023-03-19T15:58:46;2.70;;;1.65;;
64063;SDS011;50314;50.618;10.642;2023-03-19T16:01:14;1.38;;;1.27;;
64063;SDS011;50314;50.618;10.642;2023-03-19T16:03:45;1.95;;;1.48;;
64063;SDS011;50314;50.618;10.642;2023-03-19T16:06:21;1.40;;;1.20;;
64063;SDS011;50314;50.618;10.642;2023-03-19T16:08:50;2.60;;;1.60;;
64063;SDS011;50314;50.618;10.642;2023-03-19T16:16:26;2.85;;;1.30;;
64063;SDS011;50314;50.618;10.642;2023-03-19T16:18:55;1.33;;;1.13;;
64063;SDS011;50314;50.618;10.642;2023-03-19T16:21:27;1.95;;;1.27;;
64063;SDS011;50314;50.618;10.642;2023-03-19T16:24:00;1.92;;;1.40;;
64063;SDS011;50314;50.618;10.642;2023-03-19T16:26:29;1.98;;;1.55;;
64063;SDS011;50314;50.618;10.642;2023-03-19T16:31:43;5.47;;;2.05;;
64063;SDS011;50314;50.618;10.642;2023-03-19T16:36:53;1.67;;;1.30;;
64063;SDS011;50314;50.618;10.642;2023-03-19T16:39:37;2.60;;;1.42;;
64063;SDS011;50314;50.618;10.642;2023-03-19T16:42:39;2.85;;;1.55;;
64063;SDS011;50314;50.618;10.642;2023-03-19T16:47:38;3.28;;;1.77;;
64063;SDS011;50314;50.618;10.642;2023-03-19T16:50:04;3.70;;;1.67;;
64063;SDS011;50314;50.618;10.642;2023-03-19T16:52:29;2.20;;;1.60;;
64063;SDS011;50314;50.618;10.642;2023-03-19T16:54:55;2.55;;;1.75;;
64063;SDS011;50314;50.618;10.642;2023-03-19T16:57:23;3.30;;;1.20;;
64063;SDS011;50314;50.618;10.642;2023-03-19T16:59:49;1.90;;;1.40;;
64063;SDS011;50314;50.618;10.642;2023-03-19T17:02:19;1.70;;;1.23;;
64063;SDS011;50314;50.618;10.642;2023-03-19T17:04:45;3.83;;;1.20;;